createdAt,value
2019-05-29T00:00:21.209Z,1.10
2019-05-29T00:02:50.531Z,0.83
2019-05-29T00:05:19.521Z,1.13
2019-05-29T00:07:48.506Z,0.90
2019-05-29T00:10:18.352Z,1.00
2019-05-29T00:12:47.274Z,1.00
2019-05-29T00:15:16.410Z,0.90
2019-05-29T00:17:45.305Z,1.20
2019-05-29T00:20:14.913Z,1.10
2019-05-29T00:22:44.322Z,1.20
2019-05-29T00:25:14.802Z,1.10
2019-05-29T00:27:43.465Z,1.03
2019-05-29T00:30:13.464Z,1.10
2019-05-29T00:32:42.959Z,1.30
2019-05-29T00:35:12.261Z,1.10
2019-05-29T00:37:41.757Z,0.90
2019-05-29T00:40:10.995Z,1.40
2019-05-29T00:42:39.563Z,1.00
2019-05-29T00:45:09.536Z,1.13
2019-05-29T00:47:38.621Z,1.27
2019-05-29T00:50:07.985Z,1.10
2019-05-29T00:52:37.464Z,1.17
2019-05-29T00:55:08.574Z,1.10
2019-05-29T00:57:37.918Z,1.07
2019-05-29T01:00:07.007Z,1.20
2019-05-29T01:02:35.909Z,1.30
2019-05-29T01:05:04.992Z,1.03
2019-05-29T01:07:34.195Z,1.10
2019-05-29T01:10:03.388Z,1.00
2019-05-29T01:12:32.284Z,1.40
2019-05-29T01:15:00.912Z,1.33
2019-05-29T01:17:29.856Z,1.40
2019-05-29T01:19:58.751Z,1.20
2019-05-29T01:22:27.947Z,1.10
2019-05-29T01:24:56.558Z,1.03
2019-05-29T01:27:25.541Z,1.00
2019-05-29T01:29:54.618Z,1.23
2019-05-29T01:32:23.768Z,1.20
2019-05-29T01:34:52.512Z,1.40
2019-05-29T01:37:22.284Z,1.07
2019-05-29T01:39:51.207Z,1.30
2019-05-29T01:42:19.809Z,1.30
2019-05-29T01:44:48.448Z,1.33
2019-05-29T01:47:17.679Z,1.20
2019-05-29T01:49:47.289Z,1.17
2019-05-29T01:52:15.976Z,1.37
2019-05-29T01:54:44.849Z,1.37
2019-05-29T01:57:14.165Z,1.30
2019-05-29T01:59:43.094Z,1.27
2019-05-29T02:02:11.717Z,1.00
2019-05-29T02:04:40.633Z,1.30
2019-05-29T02:07:09.586Z,1.07
2019-05-29T02:09:38.138Z,1.30
2019-05-29T02:12:07.108Z,1.40
2019-05-29T02:14:35.993Z,1.10
2019-05-29T02:17:04.660Z,1.20
2019-05-29T02:19:33.259Z,1.60
2019-05-29T02:22:02.258Z,1.33
2019-05-29T02:24:30.962Z,1.30
2019-05-29T02:26:59.616Z,1.40
2019-05-29T02:29:28.532Z,1.50
2019-05-29T02:31:57.172Z,1.67
2019-05-29T02:34:27.879Z,1.40
2019-05-29T02:36:57.049Z,1.30
2019-05-29T02:39:27.212Z,1.73
2019-05-29T02:41:56.048Z,1.30
2019-05-29T02:44:25.500Z,1.37
2019-05-29T02:46:54.189Z,1.37
2019-05-29T02:49:23.852Z,1.40
2019-05-29T02:51:53.294Z,2.23
2019-05-29T02:54:22.549Z,1.70
2019-05-29T02:56:51.557Z,1.30
2019-05-29T02:59:21.051Z,1.50
2019-05-29T03:01:49.920Z,1.40
2019-05-29T03:04:18.523Z,1.60
2019-05-29T03:06:47.516Z,1.50
2019-05-29T03:09:16.184Z,1.23
2019-05-29T03:11:44.802Z,1.20
2019-05-29T03:14:13.403Z,1.10
2019-05-29T03:16:42.273Z,1.60
2019-05-29T03:19:11.475Z,1.20
2019-05-29T03:21:40.387Z,1.20
2019-05-29T03:24:09.263Z,1.20
2019-05-29T03:26:38.459Z,1.30
2019-05-29T03:29:07.549Z,1.50
2019-05-29T03:31:45.569Z,1.10
2019-05-29T03:34:07.089Z,1.73
2019-05-29T03:36:43.561Z,1.07
2019-05-29T03:39:07.080Z,1.10
2019-05-29T03:41:35.990Z,1.47
2019-05-29T03:44:05.101Z,1.47
2019-05-29T03:46:41.084Z,1.30
2019-05-29T03:49:04.518Z,1.57
2019-05-29T03:51:35.047Z,1.23
2019-05-29T03:54:04.172Z,1.33
2019-05-29T03:56:34.647Z,1.70
2019-05-29T03:59:03.469Z,1.63
2019-05-29T04:01:33.264Z,1.37
2019-05-29T04:04:02.684Z,1.30
2019-05-29T04:06:31.429Z,1.63
2019-05-29T04:09:02.205Z,1.17
2019-05-29T04:11:31.478Z,1.57
2019-05-29T04:14:00.499Z,1.20
2019-05-29T04:16:52.701Z,1.47
2019-05-29T04:19:04.735Z,1.57
2019-05-29T04:21:34.707Z,1.50
2019-05-29T04:24:06.881Z,1.57
2019-05-29T04:26:39.945Z,1.87
2019-05-29T04:29:09.319Z,1.53
2019-05-29T04:31:38.498Z,1.40
2019-05-29T04:34:07.396Z,1.57
2019-05-29T04:36:36.919Z,1.50
2019-05-29T04:39:06.722Z,1.50
2019-05-29T04:41:37.035Z,1.30
2019-05-29T04:44:06.546Z,1.80
2019-05-29T04:46:36.477Z,1.17
2019-05-29T04:49:06.177Z,1.37
2019-05-29T04:51:35.454Z,1.20
2019-05-29T04:54:04.638Z,2.23
2019-05-29T04:56:34.674Z,1.60
2019-05-29T04:59:04.039Z,1.20
2019-05-29T05:01:33.109Z,1.50
2019-05-29T05:04:01.689Z,1.30
2019-05-29T05:06:31.202Z,1.67
2019-05-29T05:09:00.265Z,1.57
2019-05-29T05:11:29.427Z,1.33
2019-05-29T05:14:01.500Z,1.33
2019-05-29T05:16:29.738Z,1.33
2019-05-29T05:18:58.810Z,1.13
2019-05-29T05:21:27.782Z,0.87
2019-05-29T05:23:56.696Z,0.80
2019-05-29T05:26:25.506Z,1.00
2019-05-29T05:28:54.160Z,1.00
2019-05-29T05:31:23.060Z,0.90
2019-05-29T05:33:51.672Z,1.43
2019-05-29T05:36:20.642Z,1.47
2019-05-29T05:38:49.499Z,1.40
2019-05-29T05:41:18.210Z,0.90
2019-05-29T05:43:47.111Z,1.70
2019-05-29T05:46:16.308Z,1.23
2019-05-29T05:48:45.224Z,0.97
2019-05-29T05:51:13.853Z,1.20
2019-05-29T05:53:42.779Z,1.20
2019-05-29T05:56:11.459Z,1.20
2019-05-29T05:58:41.976Z,1.40
2019-05-29T06:01:11.024Z,1.10
2019-05-29T06:03:40.571Z,1.20
2019-05-29T06:06:09.793Z,1.20
2019-05-29T06:08:38.370Z,1.07
2019-05-29T06:11:07.083Z,1.00
2019-05-29T06:13:36.307Z,1.37
2019-05-29T06:16:05.072Z,2.30
2019-05-29T06:18:34.465Z,1.10
2019-05-29T06:21:03.475Z,0.90
2019-05-29T06:23:32.857Z,1.00
2019-05-29T06:26:01.734Z,1.30
2019-05-29T06:28:30.349Z,1.20
2019-05-29T06:30:59.318Z,1.30
2019-05-29T06:33:27.951Z,1.10
2019-05-29T06:35:56.896Z,1.00
2019-05-29T06:38:26.284Z,1.33
2019-05-29T06:40:54.901Z,1.00
2019-05-29T06:43:24.670Z,1.10
2019-05-29T06:45:53.472Z,1.10
2019-05-29T06:48:41.586Z,0.90
2019-05-29T06:50:57.699Z,1.03
2019-05-29T06:53:26.715Z,1.93
2019-05-29T06:55:57.170Z,1.20
2019-05-29T06:58:26.788Z,1.30
2019-05-29T07:00:55.389Z,1.50
2019-05-29T07:03:24.300Z,0.93
2019-05-29T07:05:53.202Z,1.30
2019-05-29T07:08:37.660Z,0.90
2019-05-29T07:10:52.836Z,1.27
2019-05-29T07:13:21.732Z,1.20
2019-05-29T07:15:50.370Z,0.93
2019-05-29T07:18:19.313Z,1.40
2019-05-29T07:20:48.515Z,1.73
2019-05-29T07:23:17.720Z,2.80
2019-05-29T07:25:47.404Z,1.63
2019-05-29T07:28:16.420Z,1.00
2019-05-29T07:30:54.440Z,1.17
2019-05-29T07:33:16.103Z,1.27
2019-05-29T07:35:45.699Z,1.10
2019-05-29T07:38:14.756Z,1.20
2019-05-29T07:40:47.062Z,1.07
2019-05-29T07:43:14.375Z,1.07
2019-05-29T07:45:44.045Z,1.07
2019-05-29T07:48:13.398Z,1.47
2019-05-29T07:50:42.240Z,1.00
2019-05-29T07:53:10.916Z,1.47
2019-05-29T07:55:40.453Z,1.43
2019-05-29T07:58:09.566Z,1.20
2019-05-29T08:01:01.102Z,1.30
2019-05-29T08:03:08.900Z,1.20
2019-05-29T08:05:37.510Z,1.30
2019-05-29T08:08:06.461Z,1.50
2019-05-29T08:10:35.565Z,1.10
2019-05-29T08:13:04.165Z,1.20
2019-05-29T08:15:33.035Z,1.00
2019-05-29T08:18:01.666Z,1.00
2019-05-29T08:20:30.628Z,1.30
2019-05-29T08:22:59.808Z,1.00
2019-05-29T08:25:28.666Z,1.20
2019-05-29T08:27:57.328Z,1.10
2019-05-29T08:30:26.276Z,1.57
2019-05-29T08:32:55.271Z,1.20
2019-05-29T08:35:24.267Z,1.20
2019-05-29T08:37:53.173Z,0.70
2019-05-29T08:40:22.150Z,1.57
2019-05-29T08:42:51.567Z,1.33
2019-05-29T08:45:20.708Z,0.93
2019-05-29T08:47:49.800Z,1.20
2019-05-29T08:50:19.427Z,1.43
2019-05-29T08:52:50.000Z,0.70
2019-05-29T08:55:18.951Z,1.27
2019-05-29T08:57:48.436Z,1.00
2019-05-29T09:00:18.065Z,2.40
2019-05-29T09:02:47.089Z,1.20
2019-05-29T09:05:16.094Z,1.10
2019-05-29T09:07:46.396Z,0.93
2019-05-29T09:10:15.639Z,1.00
2019-05-29T09:12:50.658Z,0.93
2019-05-29T09:15:20.908Z,0.70
2019-05-29T09:17:45.677Z,0.97
2019-05-29T09:20:28.401Z,1.03
2019-05-29T09:22:45.021Z,0.90
2019-05-29T09:25:15.331Z,1.03
2019-05-29T09:27:44.710Z,0.80
2019-05-29T09:30:14.958Z,1.10
2019-05-29T09:32:50.514Z,1.30
2019-05-29T09:35:16.076Z,1.00
2019-05-29T09:37:45.399Z,0.87
2019-05-29T09:40:18.993Z,0.93
2019-05-29T09:42:47.915Z,1.20
2019-05-29T09:45:17.971Z,1.30
2019-05-29T09:47:47.081Z,0.97
2019-05-29T09:50:17.336Z,0.80
2019-05-29T09:52:46.833Z,0.93
2019-05-29T09:55:15.925Z,1.00
2019-05-29T09:57:45.227Z,0.80
2019-05-29T10:00:14.335Z,0.90
2019-05-29T10:02:42.994Z,0.80
2019-05-29T10:05:11.913Z,1.20
2019-05-29T10:07:40.635Z,0.80
2019-05-29T10:10:09.686Z,1.10
2019-05-29T10:12:38.372Z,1.00
2019-05-29T10:15:07.983Z,0.90
2019-05-29T10:17:36.868Z,1.10
2019-05-29T10:20:06.384Z,1.10
2019-05-29T10:22:35.027Z,1.10
2019-05-29T10:25:03.763Z,0.90
2019-05-29T10:27:32.641Z,1.20
2019-05-29T10:30:01.798Z,1.70
2019-05-29T10:32:30.447Z,1.30
2019-05-29T10:34:59.142Z,1.10
2019-05-29T10:37:27.773Z,1.07
2019-05-29T10:39:56.803Z,1.10
2019-05-29T10:42:25.679Z,1.10
2019-05-29T10:44:54.321Z,1.00
2019-05-29T10:47:23.047Z,1.20
2019-05-29T10:49:51.959Z,1.10
2019-05-29T10:52:20.581Z,1.07
2019-05-29T10:54:50.229Z,1.43
2019-05-29T10:57:19.746Z,1.20
2019-05-29T10:59:48.717Z,1.20
2019-05-29T11:02:17.834Z,0.90
2019-05-29T11:04:50.519Z,0.87
2019-05-29T11:07:17.091Z,1.20
2019-05-29T11:09:46.916Z,1.20
2019-05-29T11:12:16.684Z,1.80
2019-05-29T11:14:46.468Z,1.27
2019-05-29T11:17:15.475Z,0.93
2019-05-29T11:19:44.386Z,1.13
2019-05-29T11:22:25.711Z,1.10
2019-05-29T11:24:44.067Z,1.20
2019-05-29T11:27:12.878Z,1.00
2019-05-29T11:29:42.101Z,1.30
2019-05-29T11:32:10.704Z,1.10
2019-05-29T11:34:39.983Z,0.93
2019-05-29T11:37:08.872Z,1.10
2019-05-29T11:39:38.074Z,1.40
2019-05-29T11:42:07.065Z,1.10
2019-05-29T11:44:35.962Z,1.33
2019-05-29T11:47:05.240Z,1.37
2019-05-29T11:49:34.148Z,2.10
2019-05-29T11:52:22.668Z,0.80
2019-05-29T11:54:33.469Z,0.90
2019-05-29T11:57:03.286Z,0.90
2019-05-29T11:59:32.008Z,0.80
2019-05-29T12:02:03.167Z,0.70
2019-05-29T12:04:31.283Z,0.90
2019-05-29T12:07:01.589Z,0.90
2019-05-29T12:09:33.222Z,1.13
2019-05-29T12:12:02.156Z,0.90
2019-05-29T12:14:31.463Z,1.30
2019-05-29T12:17:00.684Z,1.07
2019-05-29T12:19:29.646Z,1.00
2019-05-29T12:21:58.564Z,1.20
2019-05-29T12:24:27.849Z,1.33
2019-05-29T12:26:56.522Z,1.20
2019-05-29T12:29:25.731Z,1.17
2019-05-29T12:31:54.972Z,1.17
2019-05-29T12:34:23.648Z,1.10
2019-05-29T12:36:53.314Z,0.90
2019-05-29T12:39:22.054Z,1.30
2019-05-29T12:41:50.688Z,1.20
2019-05-29T12:44:19.289Z,0.90
2019-05-29T12:46:48.279Z,1.17
2019-05-29T12:49:17.263Z,1.00
2019-05-29T12:51:45.900Z,1.00
2019-05-29T12:54:14.515Z,1.00
2019-05-29T12:56:43.736Z,1.00
2019-05-29T12:59:12.726Z,1.10
2019-05-29T13:01:41.333Z,0.97
2019-05-29T13:04:09.974Z,2.20
2019-05-29T13:06:38.598Z,0.87
2019-05-29T13:09:08.121Z,0.90
2019-05-29T13:11:37.083Z,0.90
2019-05-29T13:14:05.971Z,1.00
2019-05-29T13:16:34.880Z,1.57
2019-05-29T13:19:05.223Z,0.67
2019-05-29T13:21:34.069Z,1.10
2019-05-29T13:24:06.337Z,0.97
2019-05-29T13:26:33.623Z,1.10
2019-05-29T13:29:03.809Z,1.13
2019-05-29T13:31:33.438Z,0.90
2019-05-29T13:34:02.311Z,1.17
2019-05-29T13:36:30.938Z,1.00
2019-05-29T13:39:00.237Z,0.90
2019-05-29T13:41:29.107Z,1.00
2019-05-29T13:43:58.420Z,0.90
2019-05-29T13:46:27.484Z,0.80
2019-05-29T13:48:56.779Z,1.00
2019-05-29T13:51:25.691Z,1.30
2019-05-29T13:54:03.562Z,1.80
2019-05-29T13:56:24.710Z,0.90
2019-05-29T13:58:53.615Z,1.00
2019-05-29T14:01:22.493Z,1.00
2019-05-29T14:03:51.135Z,0.97
2019-05-29T14:06:20.057Z,1.00
2019-05-29T14:08:48.699Z,1.23
2019-05-29T14:11:17.308Z,0.93
2019-05-29T14:13:45.910Z,1.30
2019-05-29T14:16:14.610Z,1.00
2019-05-29T14:18:43.679Z,0.87
2019-05-29T14:21:13.534Z,0.90
2019-05-29T14:23:42.513Z,1.10
2019-05-29T14:26:12.990Z,1.10
2019-05-29T14:28:41.703Z,1.33
2019-05-29T14:31:10.392Z,1.03
2019-05-29T14:33:39.301Z,1.30
2019-05-29T14:36:07.909Z,1.77
2019-05-29T14:38:36.785Z,1.10
2019-05-29T14:41:05.791Z,0.90
2019-05-29T14:43:34.416Z,1.30
2019-05-29T14:46:03.966Z,1.60
2019-05-29T14:48:33.370Z,1.17
2019-05-29T14:51:03.633Z,1.07
2019-05-29T14:53:32.426Z,1.20
2019-05-29T14:56:02.524Z,1.17
2019-05-29T14:58:31.495Z,1.20
2019-05-29T15:01:00.102Z,1.40
2019-05-29T15:03:29.078Z,1.13
2019-05-29T15:05:57.706Z,1.20
2019-05-29T15:08:26.652Z,1.00
2019-05-29T15:10:55.294Z,1.10
2019-05-29T15:13:24.379Z,1.30
2019-05-29T15:15:53.630Z,1.10
2019-05-29T15:18:22.276Z,1.20
2019-05-29T15:20:51.197Z,1.40
2019-05-29T15:23:19.812Z,1.20
2019-05-29T15:25:48.682Z,1.10
2019-05-29T15:28:17.981Z,2.40
2019-05-29T15:30:47.396Z,1.30
2019-05-29T15:33:16.855Z,1.10
2019-05-29T15:35:45.889Z,1.10
2019-05-29T15:38:14.907Z,1.33
2019-05-29T15:40:43.824Z,1.30
2019-05-29T15:43:12.888Z,1.10
2019-05-29T15:45:41.611Z,1.57
2019-05-29T15:48:11.055Z,1.10
2019-05-29T15:50:40.053Z,1.13
2019-05-29T15:53:08.954Z,1.10
2019-05-29T15:55:37.845Z,1.27
2019-05-29T15:58:07.256Z,1.27
2019-05-29T16:00:36.235Z,1.23
2019-05-29T16:03:05.434Z,1.07
2019-05-29T16:05:34.340Z,1.40
2019-05-29T16:08:03.073Z,1.40
2019-05-29T16:10:31.705Z,1.30
2019-05-29T16:13:00.900Z,1.60
2019-05-29T16:15:29.527Z,1.20
2019-05-29T16:17:58.158Z,1.23
2019-05-29T16:20:27.471Z,1.30
2019-05-29T16:22:56.083Z,1.70
2019-05-29T16:25:39.727Z,1.20
2019-05-29T16:27:55.472Z,1.60
2019-05-29T16:30:24.466Z,1.27
2019-05-29T16:32:53.055Z,1.40
2019-05-29T16:35:23.956Z,1.33
2019-05-29T16:37:52.446Z,1.23
2019-05-29T16:40:21.935Z,1.60
2019-05-29T16:42:51.194Z,1.50
2019-05-29T16:45:20.888Z,1.37
2019-05-29T16:47:49.850Z,1.50
2019-05-29T16:50:19.423Z,1.37
2019-05-29T16:52:48.541Z,1.20
2019-05-29T16:55:19.351Z,1.37
2019-05-29T16:57:49.033Z,1.40
2019-05-29T17:00:19.722Z,1.20
2019-05-29T17:02:48.761Z,1.23
2019-05-29T17:05:17.862Z,1.33
2019-05-29T17:07:46.480Z,1.27
2019-05-29T17:10:16.306Z,1.50
2019-05-29T17:12:45.074Z,1.13
2019-05-29T17:15:15.167Z,1.33
2019-05-29T17:17:44.464Z,1.40
2019-05-29T17:20:14.659Z,1.30
2019-05-29T17:22:44.500Z,1.47
2019-05-29T17:25:14.707Z,1.40
2019-05-29T17:27:43.532Z,1.47
2019-05-29T17:30:12.502Z,1.40
2019-05-29T17:32:41.426Z,1.40
2019-05-29T17:35:10.524Z,1.20
2019-05-29T17:37:39.457Z,1.17
2019-05-29T17:40:08.895Z,1.63
2019-05-29T17:42:37.504Z,1.40
2019-05-29T17:45:06.654Z,1.57
2019-05-29T17:47:36.281Z,1.43
2019-05-29T17:50:05.935Z,1.40
2019-05-29T17:52:35.186Z,1.50
2019-05-29T17:55:04.106Z,1.50
2019-05-29T17:57:33.689Z,1.30
2019-05-29T18:00:05.540Z,1.30
2019-05-29T18:02:50.429Z,1.30
2019-05-29T18:05:04.972Z,2.47
2019-05-29T18:07:33.864Z,1.70
2019-05-29T18:10:02.875Z,1.50
2019-05-29T18:12:31.882Z,1.60
2019-05-29T18:15:00.560Z,1.40
2019-05-29T18:17:29.427Z,1.53
2019-05-29T18:19:58.065Z,1.57
2019-05-29T18:22:27.800Z,1.30
2019-05-29T18:24:56.785Z,1.67
2019-05-29T18:27:26.027Z,1.43
2019-05-29T18:29:56.238Z,1.57
2019-05-29T18:32:25.208Z,1.40
2019-05-29T18:34:56.529Z,1.10
2019-05-29T18:37:26.174Z,0.90
2019-05-29T18:39:55.309Z,1.27
2019-05-29T18:42:25.607Z,1.10
2019-05-29T18:44:54.847Z,1.17
2019-05-29T18:47:23.547Z,1.03
2019-05-29T18:49:52.147Z,1.17
2019-05-29T18:52:21.817Z,1.10
2019-05-29T18:54:50.478Z,1.57
2019-05-29T18:57:19.370Z,1.33
2019-05-29T18:59:48.166Z,1.30
2019-05-29T19:02:17.472Z,1.50
2019-05-29T19:04:46.101Z,1.20
2019-05-29T19:07:14.749Z,1.30
2019-05-29T19:09:43.831Z,1.07
2019-05-29T19:12:12.419Z,1.50
2019-05-29T19:14:41.357Z,1.60
2019-05-29T19:17:10.304Z,1.70
2019-05-29T19:19:38.926Z,1.20
2019-05-29T19:22:07.888Z,1.10
2019-05-29T19:24:36.869Z,1.30
2019-05-29T19:27:05.966Z,1.20
2019-05-29T19:29:34.680Z,1.50
2019-05-29T19:32:03.680Z,1.47
2019-05-29T19:34:33.664Z,1.40
2019-05-29T19:37:02.862Z,1.60
2019-05-29T19:39:32.043Z,1.43
2019-05-29T19:42:00.891Z,1.60
2019-05-29T19:44:30.388Z,1.43
2019-05-29T19:47:00.062Z,1.40
2019-05-29T19:49:28.953Z,1.30
2019-05-29T19:51:57.963Z,1.60
2019-05-29T19:54:27.441Z,1.33
2019-05-29T19:56:56.449Z,1.70
2019-05-29T19:59:25.995Z,2.67
2019-05-29T20:01:55.258Z,1.77
2019-05-29T20:04:24.452Z,1.70
2019-05-29T20:06:53.653Z,1.80
2019-05-29T20:09:22.259Z,2.30
2019-05-29T20:11:51.243Z,2.00
2019-05-29T20:14:20.121Z,2.10
2019-05-29T20:16:49.424Z,3.03
2019-05-29T20:19:18.063Z,2.17
2019-05-29T20:21:46.763Z,1.97
2019-05-29T20:24:15.703Z,2.10
2019-05-29T20:26:44.679Z,1.97
2019-05-29T20:29:13.306Z,2.20
2019-05-29T20:31:42.923Z,2.13
2019-05-29T20:34:11.972Z,2.40
2019-05-29T20:36:41.548Z,2.17
2019-05-29T20:39:10.876Z,2.40
2019-05-29T20:41:42.094Z,2.17
2019-05-29T20:44:10.507Z,2.20
2019-05-29T20:46:39.137Z,2.20
2019-05-29T20:49:08.386Z,2.53
2019-05-29T20:51:38.288Z,2.83
2019-05-29T20:54:06.886Z,2.07
2019-05-29T20:56:35.897Z,2.57
2019-05-29T20:59:04.587Z,2.70
2019-05-29T21:01:40.133Z,3.00
2019-05-29T21:04:03.887Z,2.93
2019-05-29T21:06:32.789Z,2.90
2019-05-29T21:09:02.094Z,3.93
2019-05-29T21:11:31.293Z,3.83
2019-05-29T21:14:00.185Z,3.97
2019-05-29T21:16:29.280Z,3.97
2019-05-29T21:19:00.305Z,3.57
2019-05-29T21:21:29.299Z,3.77
2019-05-29T21:23:58.195Z,3.90
2019-05-29T21:26:26.839Z,3.83
2019-05-29T21:28:55.774Z,4.63
2019-05-29T21:31:24.665Z,3.80
2019-05-29T21:33:53.320Z,3.60
2019-05-29T21:36:22.246Z,3.60
2019-05-29T21:38:51.134Z,3.27
2019-05-29T21:41:20.029Z,3.37
2019-05-29T21:43:48.917Z,3.37
2019-05-29T21:46:18.114Z,2.93
2019-05-29T21:48:47.433Z,3.00
2019-05-29T21:51:16.438Z,2.70
2019-05-29T21:53:45.502Z,2.53
2019-05-29T21:56:14.393Z,2.37
2019-05-29T21:58:58.992Z,2.17
2019-05-29T22:01:14.023Z,2.27
2019-05-29T22:03:42.637Z,2.03
2019-05-29T22:06:11.599Z,2.40
2019-05-29T22:08:40.810Z,5.47
2019-05-29T22:11:10.003Z,2.27
2019-05-29T22:13:38.597Z,1.70
2019-05-29T22:16:07.329Z,1.90
2019-05-29T22:18:35.977Z,1.60
2019-05-29T22:21:07.136Z,1.80
2019-05-29T22:23:35.728Z,1.90
2019-05-29T22:26:04.779Z,1.73
2019-05-29T22:28:33.665Z,1.97
2019-05-29T22:31:02.269Z,1.70
2019-05-29T22:33:30.993Z,2.23
2019-05-29T22:35:59.673Z,2.17
2019-05-29T22:38:28.714Z,1.80
2019-05-29T22:40:57.809Z,1.80
2019-05-29T22:43:26.706Z,2.37
2019-05-29T22:45:55.636Z,1.80
2019-05-29T22:48:24.302Z,1.97
2019-05-29T22:50:53.851Z,1.90
2019-05-29T22:53:23.066Z,2.10
2019-05-29T22:55:52.295Z,2.03
2019-05-29T22:58:20.934Z,2.00
2019-05-29T23:00:49.855Z,1.87
2019-05-29T23:03:18.773Z,2.03
2019-05-29T23:05:47.669Z,2.00
2019-05-29T23:08:16.561Z,2.10
2019-05-29T23:10:45.180Z,2.20
2019-05-29T23:13:14.122Z,2.10
2019-05-29T23:15:43.219Z,1.83
2019-05-29T23:18:11.838Z,1.80
2019-05-29T23:20:40.797Z,2.03
2019-05-29T23:23:09.402Z,1.90
2019-05-29T23:25:38.371Z,1.53
2019-05-29T23:28:06.993Z,1.80
2019-05-29T23:30:35.854Z,2.17
2019-05-29T23:33:04.500Z,2.00
2019-05-29T23:35:33.102Z,1.70
2019-05-29T23:38:02.011Z,1.73
2019-05-29T23:40:31.161Z,1.90
2019-05-29T23:42:59.780Z,2.20
2019-05-29T23:45:28.468Z,1.90
2019-05-29T23:47:57.656Z,2.10
2019-05-29T23:50:26.687Z,2.20
2019-05-29T23:52:55.652Z,2.10
2019-05-29T23:55:24.383Z,2.00
2019-05-29T23:57:53.678Z,2.07
